sensor_id;sensor_type;location;lat;lon;timestamp;P1;durP1;ratioP1;P2;durP2;ratioP2
53281;SDS011;39167;52.794;6.892;2022-12-11T00:01:26;44.80;;;16.27;;
53281;SDS011;39167;52.794;6.892;2022-12-11T00:03:52;43.58;;;15.60;;
53281;SDS011;39167;52.794;6.892;2022-12-11T00:06:19;37.97;;;16.02;;
53281;SDS011;39167;52.794;6.892;2022-12-11T00:08:46;41.67;;;15.48;;
53281;SDS011;39167;52.794;6.892;2022-12-11T00:11:15;40.88;;;16.27;;
53281;SDS011;39167;52.794;6.892;2022-12-11T00:13:41;41.78;;;15.88;;
53281;SDS011;39167;52.794;6.892;2022-12-11T00:16:07;36.17;;;15.00;;
53281;SDS011;39167;52.794;6.892;2022-12-11T00:18:33;45.33;;;16.20;;
53281;SDS011;39167;52.794;6.892;2022-12-11T00:21:00;38.67;;;14.73;;
53281;SDS011;39167;52.794;6.892;2022-12-11T00:23:30;46.80;;;15.85;;
53281;SDS011;39167;52.794;6.892;2022-12-11T00:25:56;43.15;;;15.90;;
53281;SDS011;39167;52.794;6.892;2022-12-11T00:28:21;43.78;;;15.55;;
53281;SDS011;39167;52.794;6.892;2022-12-11T00:30:47;45.03;;;16.55;;
53281;SDS011;39167;52.794;6.892;2022-12-11T00:33:14;44.53;;;15.82;;
53281;SDS011;39167;52.794;6.892;2022-12-11T00:35:41;42.42;;;16.48;;
53281;SDS011;39167;52.794;6.892;2022-12-11T00:38:08;41.28;;;15.55;;
53281;SDS011;39167;52.794;6.892;2022-12-11T00:40:39;44.90;;;16.52;;
53281;SDS011;39167;52.794;6.892;2022-12-11T00:43:05;47.83;;;16.73;;
53281;SDS011;39167;52.794;6.892;2022-12-11T00:45:33;37.53;;;16.88;;
53281;SDS011;39167;52.794;6.892;2022-12-11T00:48:00;44.67;;;17.13;;
53281;SDS011;39167;52.794;6.892;2022-12-11T00:50:26;39.10;;;15.55;;
53281;SDS011;39167;52.794;6.892;2022-12-11T00:52:52;41.03;;;16.10;;
53281;SDS011;39167;52.794;6.892;2022-12-11T00:55:18;45.72;;;15.93;;
53281;SDS011;39167;52.794;6.892;2022-12-11T00:57:44;44.90;;;16.55;;
53281;SDS011;39167;52.794;6.892;2022-12-11T01:00:09;40.17;;;14.45;;
53281;SDS011;39167;52.794;6.892;2022-12-11T01:02:36;37.88;;;15.05;;
53281;SDS011;39167;52.794;6.892;2022-12-11T01:05:02;42.03;;;14.95;;
53281;SDS011;39167;52.794;6.892;2022-12-11T01:07:28;42.05;;;15.73;;
53281;SDS011;39167;52.794;6.892;2022-12-11T01:09:54;47.58;;;15.48;;
53281;SDS011;39167;52.794;6.892;2022-12-11T01:12:42;49.28;;;16.52;;
53281;SDS011;39167;52.794;6.892;2022-12-11T01:15:08;43.80;;;15.68;;
53281;SDS011;39167;52.794;6.892;2022-12-11T01:17:35;41.63;;;15.13;;
53281;SDS011;39167;52.794;6.892;2022-12-11T01:20:02;45.22;;;15.10;;
53281;SDS011;39167;52.794;6.892;2022-12-11T01:22:29;40.33;;;14.70;;
53281;SDS011;39167;52.794;6.892;2022-12-11T01:24:55;44.35;;;15.80;;
53281;SDS011;39167;52.794;6.892;2022-12-11T01:27:21;42.45;;;15.52;;
53281;SDS011;39167;52.794;6.892;2022-12-11T01:29:46;44.40;;;17.00;;
53281;SDS011;39167;52.794;6.892;2022-12-11T01:32:13;48.55;;;16.13;;
53281;SDS011;39167;52.794;6.892;2022-12-11T01:34:39;40.42;;;15.60;;
53281;SDS011;39167;52.794;6.892;2022-12-11T01:37:05;43.92;;;14.70;;
53281;SDS011;39167;52.794;6.892;2022-12-11T01:39:31;42.55;;;15.82;;
53281;SDS011;39167;52.794;6.892;2022-12-11T01:41:57;47.03;;;15.52;;
53281;SDS011;39167;52.794;6.892;2022-12-11T01:46:51;50.00;;;16.63;;
53281;SDS011;39167;52.794;6.892;2022-12-11T01:49:18;48.58;;;15.95;;
53281;SDS011;39167;52.794;6.892;2022-12-11T01:51:48;49.30;;;15.40;;
53281;SDS011;39167;52.794;6.892;2022-12-11T01:54:18;49.53;;;16.00;;
53281;SDS011;39167;52.794;6.892;2022-12-11T01:56:45;46.47;;;16.27;;
53281;SDS011;39167;52.794;6.892;2022-12-11T01:59:14;48.78;;;16.38;;
53281;SDS011;39167;52.794;6.892;2022-12-11T02:02:05;45.78;;;15.30;;
53281;SDS011;39167;52.794;6.892;2022-12-11T02:04:34;47.05;;;17.05;;
53281;SDS011;39167;52.794;6.892;2022-12-11T02:07:01;45.78;;;15.82;;
53281;SDS011;39167;52.794;6.892;2022-12-11T02:09:30;47.63;;;15.35;;
53281;SDS011;39167;52.794;6.892;2022-12-11T02:12:00;48.85;;;15.35;;
53281;SDS011;39167;52.794;6.892;2022-12-11T02:14:44;44.50;;;16.85;;
53281;SDS011;39167;52.794;6.892;2022-12-11T02:17:21;43.05;;;14.85;;
53281;SDS011;39167;52.794;6.892;2022-12-11T02:20:19;47.45;;;15.38;;
53281;SDS011;39167;52.794;6.892;2022-12-11T02:22:57;49.65;;;15.73;;
53281;SDS011;39167;52.794;6.892;2022-12-11T02:25:38;43.75;;;15.32;;
53281;SDS011;39167;52.794;6.892;2022-12-11T02:28:27;38.72;;;14.05;;
53281;SDS011;39167;52.794;6.892;2022-12-11T02:31:11;43.38;;;15.43;;
53281;SDS011;39167;52.794;6.892;2022-12-11T02:33:51;48.08;;;15.30;;
53281;SDS011;39167;52.794;6.892;2022-12-11T02:36:30;45.97;;;15.15;;
53281;SDS011;39167;52.794;6.892;2022-12-11T02:39:00;40.25;;;14.20;;
53281;SDS011;39167;52.794;6.892;2022-12-11T02:41:29;42.83;;;15.10;;
53281;SDS011;39167;52.794;6.892;2022-12-11T02:43:56;41.17;;;15.65;;
53281;SDS011;39167;52.794;6.892;2022-12-11T02:46:24;54.70;;;16.15;;
53281;SDS011;39167;52.794;6.892;2022-12-11T02:48:51;47.38;;;16.13;;
53281;SDS011;39167;52.794;6.892;2022-12-11T02:51:20;48.53;;;16.10;;
53281;SDS011;39167;52.794;6.892;2022-12-11T02:53:49;40.47;;;14.95;;
53281;SDS011;39167;52.794;6.892;2022-12-11T02:56:31;50.63;;;16.83;;
53281;SDS011;39167;52.794;6.892;2022-12-11T02:59:05;45.58;;;16.02;;
53281;SDS011;39167;52.794;6.892;2022-12-11T03:01:37;47.47;;;16.08;;
53281;SDS011;39167;52.794;6.892;2022-12-11T03:04:02;52.03;;;17.52;;
53281;SDS011;39167;52.794;6.892;2022-12-11T03:06:31;52.47;;;16.90;;
53281;SDS011;39167;52.794;6.892;2022-12-11T03:09:00;51.17;;;16.95;;
53281;SDS011;39167;52.794;6.892;2022-12-11T03:11:26;48.28;;;15.85;;
53281;SDS011;39167;52.794;6.892;2022-12-11T03:13:52;42.90;;;16.00;;
53281;SDS011;39167;52.794;6.892;2022-12-11T03:16:24;53.15;;;16.98;;
53281;SDS011;39167;52.794;6.892;2022-12-11T03:19:16;50.13;;;15.77;;
53281;SDS011;39167;52.794;6.892;2022-12-11T03:24:19;44.10;;;16.35;;
53281;SDS011;39167;52.794;6.892;2022-12-11T03:27:00;48.63;;;15.98;;
53281;SDS011;39167;52.794;6.892;2022-12-11T03:29:34;46.83;;;17.50;;
53281;SDS011;39167;52.794;6.892;2022-12-11T03:32:07;46.47;;;16.75;;
53281;SDS011;39167;52.794;6.892;2022-12-11T03:34:51;53.50;;;16.15;;
53281;SDS011;39167;52.794;6.892;2022-12-11T03:37:21;42.92;;;14.75;;
53281;SDS011;39167;52.794;6.892;2022-12-11T03:39:50;55.88;;;16.42;;
53281;SDS011;39167;52.794;6.892;2022-12-11T03:42:19;49.80;;;15.35;;
53281;SDS011;39167;52.794;6.892;2022-12-11T03:44:47;40.88;;;16.10;;
53281;SDS011;39167;52.794;6.892;2022-12-11T03:47:16;45.08;;;16.05;;
53281;SDS011;39167;52.794;6.892;2022-12-11T03:49:44;49.47;;;17.40;;
53281;SDS011;39167;52.794;6.892;2022-12-11T03:52:12;54.83;;;17.40;;
53281;SDS011;39167;52.794;6.892;2022-12-11T03:54:39;46.10;;;15.43;;
53281;SDS011;39167;52.794;6.892;2022-12-11T03:57:07;44.65;;;16.23;;
53281;SDS011;39167;52.794;6.892;2022-12-11T03:59:36;50.58;;;16.58;;
53281;SDS011;39167;52.794;6.892;2022-12-11T04:02:02;57.22;;;17.58;;
53281;SDS011;39167;52.794;6.892;2022-12-11T04:04:38;59.58;;;17.38;;
53281;SDS011;39167;52.794;6.892;2022-12-11T04:07:05;60.00;;;17.58;;
53281;SDS011;39167;52.794;6.892;2022-12-11T04:09:31;55.33;;;17.42;;
53281;SDS011;39167;52.794;6.892;2022-12-11T04:11:57;51.55;;;17.38;;
53281;SDS011;39167;52.794;6.892;2022-12-11T04:14:22;53.38;;;18.27;;
53281;SDS011;39167;52.794;6.892;2022-12-11T04:17:07;54.75;;;17.55;;
53281;SDS011;39167;52.794;6.892;2022-12-11T04:19:33;55.53;;;17.83;;
53281;SDS011;39167;52.794;6.892;2022-12-11T04:22:17;49.13;;;16.52;;
53281;SDS011;39167;52.794;6.892;2022-12-11T04:25:02;59.95;;;18.60;;
53281;SDS011;39167;52.794;6.892;2022-12-11T04:27:30;65.25;;;19.70;;
53281;SDS011;39167;52.794;6.892;2022-12-11T04:30:15;58.92;;;18.83;;
53281;SDS011;39167;52.794;6.892;2022-12-11T04:32:46;50.00;;;17.73;;
53281;SDS011;39167;52.794;6.892;2022-12-11T04:35:12;62.80;;;20.27;;
53281;SDS011;39167;52.794;6.892;2022-12-11T04:37:38;61.70;;;20.13;;
53281;SDS011;39167;52.794;6.892;2022-12-11T04:40:05;69.53;;;22.15;;
53281;SDS011;39167;52.794;6.892;2022-12-11T04:42:33;66.97;;;20.00;;
53281;SDS011;39167;52.794;6.892;2022-12-11T04:44:58;66.60;;;20.48;;
53281;SDS011;39167;52.794;6.892;2022-12-11T04:47:24;59.63;;;20.55;;
53281;SDS011;39167;52.794;6.892;2022-12-11T04:49:50;58.47;;;20.08;;
53281;SDS011;39167;52.794;6.892;2022-12-11T04:52:16;59.97;;;17.92;;
53281;SDS011;39167;52.794;6.892;2022-12-11T04:54:42;63.92;;;20.02;;
53281;SDS011;39167;52.794;6.892;2022-12-11T04:57:08;66.97;;;20.98;;
53281;SDS011;39167;52.794;6.892;2022-12-11T04:59:33;56.05;;;18.48;;
53281;SDS011;39167;52.794;6.892;2022-12-11T05:01:59;60.53;;;19.20;;
53281;SDS011;39167;52.794;6.892;2022-12-11T05:04:29;59.33;;;19.35;;
53281;SDS011;39167;52.794;6.892;2022-12-11T05:06:56;57.17;;;17.67;;
53281;SDS011;39167;52.794;6.892;2022-12-11T05:09:21;59.28;;;17.75;;
53281;SDS011;39167;52.794;6.892;2022-12-11T05:11:47;55.33;;;18.35;;
53281;SDS011;39167;52.794;6.892;2022-12-11T05:14:13;59.20;;;17.63;;
53281;SDS011;39167;52.794;6.892;2022-12-11T05:16:39;61.95;;;18.33;;
53281;SDS011;39167;52.794;6.892;2022-12-11T05:19:04;54.38;;;18.52;;
53281;SDS011;39167;52.794;6.892;2022-12-11T05:21:30;51.97;;;17.48;;
53281;SDS011;39167;52.794;6.892;2022-12-11T05:23:56;40.55;;;15.07;;
53281;SDS011;39167;52.794;6.892;2022-12-11T05:26:21;56.30;;;17.60;;
53281;SDS011;39167;52.794;6.892;2022-12-11T05:28:49;56.20;;;16.77;;
53281;SDS011;39167;52.794;6.892;2022-12-11T05:31:18;48.92;;;17.20;;
53281;SDS011;39167;52.794;6.892;2022-12-11T05:33:46;51.17;;;17.02;;
53281;SDS011;39167;52.794;6.892;2022-12-11T05:36:18;49.13;;;16.60;;
53281;SDS011;39167;52.794;6.892;2022-12-11T05:38:46;54.03;;;18.00;;
53281;SDS011;39167;52.794;6.892;2022-12-11T05:41:14;53.63;;;18.40;;
53281;SDS011;39167;52.794;6.892;2022-12-11T05:43:42;46.60;;;17.00;;
53281;SDS011;39167;52.794;6.892;2022-12-11T05:46:14;50.75;;;17.77;;
53281;SDS011;39167;52.794;6.892;2022-12-11T05:48:45;50.97;;;15.75;;
53281;SDS011;39167;52.794;6.892;2022-12-11T05:51:13;51.88;;;17.08;;
53281;SDS011;39167;52.794;6.892;2022-12-11T05:53:40;42.10;;;17.13;;
53281;SDS011;39167;52.794;6.892;2022-12-11T05:56:07;43.08;;;14.60;;
53281;SDS011;39167;52.794;6.892;2022-12-11T05:58:36;44.35;;;17.45;;
53281;SDS011;39167;52.794;6.892;2022-12-11T06:01:05;53.08;;;18.52;;
53281;SDS011;39167;52.794;6.892;2022-12-11T06:03:32;48.42;;;18.40;;
53281;SDS011;39167;52.794;6.892;2022-12-11T06:06:00;58.03;;;19.52;;
53281;SDS011;39167;52.794;6.892;2022-12-11T06:08:27;60.30;;;18.77;;
53281;SDS011;39167;52.794;6.892;2022-12-11T06:10:53;61.65;;;19.17;;
53281;SDS011;39167;52.794;6.892;2022-12-11T06:13:18;60.22;;;19.63;;
53281;SDS011;39167;52.794;6.892;2022-12-11T06:15:44;54.00;;;17.25;;
53281;SDS011;39167;52.794;6.892;2022-12-11T06:18:10;57.85;;;18.63;;
53281;SDS011;39167;52.794;6.892;2022-12-11T06:20:35;56.38;;;19.73;;
53281;SDS011;39167;52.794;6.892;2022-12-11T06:23:01;62.65;;;18.20;;
53281;SDS011;39167;52.794;6.892;2022-12-11T06:25:27;54.42;;;19.60;;
53281;SDS011;39167;52.794;6.892;2022-12-11T06:27:53;53.65;;;19.75;;
53281;SDS011;39167;52.794;6.892;2022-12-11T06:30:19;55.70;;;20.30;;
53281;SDS011;39167;52.794;6.892;2022-12-11T06:32:45;50.42;;;18.80;;
53281;SDS011;39167;52.794;6.892;2022-12-11T06:35:11;43.80;;;15.70;;
53281;SDS011;39167;52.794;6.892;2022-12-11T06:37:37;55.35;;;17.88;;
53281;SDS011;39167;52.794;6.892;2022-12-11T06:40:05;56.10;;;18.85;;
53281;SDS011;39167;52.794;6.892;2022-12-11T06:42:32;55.35;;;18.55;;
53281;SDS011;39167;52.794;6.892;2022-12-11T06:44:58;50.83;;;17.27;;
53281;SDS011;39167;52.794;6.892;2022-12-11T06:47:27;54.20;;;17.10;;
53281;SDS011;39167;52.794;6.892;2022-12-11T06:49:53;57.33;;;17.67;;
53281;SDS011;39167;52.794;6.892;2022-12-11T06:52:23;54.78;;;18.55;;
53281;SDS011;39167;52.794;6.892;2022-12-11T06:57:17;62.50;;;19.75;;
53281;SDS011;39167;52.794;6.892;2022-12-11T06:59:43;56.25;;;18.83;;
53281;SDS011;39167;52.794;6.892;2022-12-11T07:02:11;57.95;;;18.05;;
53281;SDS011;39167;52.794;6.892;2022-12-11T07:04:38;56.63;;;19.95;;
53281;SDS011;39167;52.794;6.892;2022-12-11T07:07:04;55.58;;;16.73;;
53281;SDS011;39167;52.794;6.892;2022-12-11T07:09:30;54.08;;;17.02;;
53281;SDS011;39167;52.794;6.892;2022-12-11T07:11:55;45.55;;;17.10;;
53281;SDS011;39167;52.794;6.892;2022-12-11T07:14:21;46.70;;;15.90;;
53281;SDS011;39167;52.794;6.892;2022-12-11T07:16:47;50.42;;;17.17;;
53281;SDS011;39167;52.794;6.892;2022-12-11T07:19:13;50.72;;;18.48;;
53281;SDS011;39167;52.794;6.892;2022-12-11T07:21:39;54.17;;;17.27;;
53281;SDS011;39167;52.794;6.892;2022-12-11T07:24:05;48.58;;;17.13;;
53281;SDS011;39167;52.794;6.892;2022-12-11T07:26:31;58.50;;;19.63;;
53281;SDS011;39167;52.794;6.892;2022-12-11T07:28:58;53.85;;;17.83;;
53281;SDS011;39167;52.794;6.892;2022-12-11T07:31:25;49.83;;;17.80;;
53281;SDS011;39167;52.794;6.892;2022-12-11T07:33:53;53.58;;;17.60;;
53281;SDS011;39167;52.794;6.892;2022-12-11T07:36:24;55.10;;;19.25;;
53281;SDS011;39167;52.794;6.892;2022-12-11T07:38:50;48.92;;;18.35;;
53281;SDS011;39167;52.794;6.892;2022-12-11T07:41:17;47.05;;;17.83;;
53281;SDS011;39167;52.794;6.892;2022-12-11T07:43:43;58.25;;;18.90;;
53281;SDS011;39167;52.794;6.892;2022-12-11T07:46:13;51.17;;;17.63;;
53281;SDS011;39167;52.794;6.892;2022-12-11T07:48:44;51.88;;;17.42;;
53281;SDS011;39167;52.794;6.892;2022-12-11T07:51:11;53.35;;;18.23;;
53281;SDS011;39167;52.794;6.892;2022-12-11T07:53:42;60.38;;;18.35;;
53281;SDS011;39167;52.794;6.892;2022-12-11T07:56:12;60.77;;;19.67;;
53281;SDS011;39167;52.794;6.892;2022-12-11T07:58:40;49.92;;;18.42;;
53281;SDS011;39167;52.794;6.892;2022-12-11T08:01:09;56.28;;;18.70;;
53281;SDS011;39167;52.794;6.892;2022-12-11T08:03:37;52.78;;;17.85;;
53281;SDS011;39167;52.794;6.892;2022-12-11T08:06:03;51.72;;;17.98;;
53281;SDS011;39167;52.794;6.892;2022-12-11T08:08:29;51.70;;;18.65;;
53281;SDS011;39167;52.794;6.892;2022-12-11T08:10:55;57.63;;;18.88;;
53281;SDS011;39167;52.794;6.892;2022-12-11T08:13:25;55.40;;;19.20;;
53281;SDS011;39167;52.794;6.892;2022-12-11T08:15:51;51.08;;;18.05;;
53281;SDS011;39167;52.794;6.892;2022-12-11T08:18:17;51.97;;;18.58;;
53281;SDS011;39167;52.794;6.892;2022-12-11T08:20:43;51.80;;;18.52;;
53281;SDS011;39167;52.794;6.892;2022-12-11T08:23:08;73.57;;;19.77;;
53281;SDS011;39167;52.794;6.892;2022-12-11T08:25:34;60.60;;;20.67;;
53281;SDS011;39167;52.794;6.892;2022-12-11T08:28:00;49.90;;;19.77;;
53281;SDS011;39167;52.794;6.892;2022-12-11T08:30:25;53.10;;;18.90;;
53281;SDS011;39167;52.794;6.892;2022-12-11T08:32:51;54.88;;;19.90;;
53281;SDS011;39167;52.794;6.892;2022-12-11T08:35:17;58.42;;;19.35;;
53281;SDS011;39167;52.794;6.892;2022-12-11T08:37:42;53.65;;;19.42;;
53281;SDS011;39167;52.794;6.892;2022-12-11T08:40:08;54.85;;;18.85;;
53281;SDS011;39167;52.794;6.892;2022-12-11T08:42:35;57.00;;;19.73;;
53281;SDS011;39167;52.794;6.892;2022-12-11T08:45:00;55.92;;;20.30;;
53281;SDS011;39167;52.794;6.892;2022-12-11T08:47:26;53.67;;;18.27;;
53281;SDS011;39167;52.794;6.892;2022-12-11T08:49:52;57.45;;;18.02;;
53281;SDS011;39167;52.794;6.892;2022-12-11T08:52:17;59.85;;;20.17;;
53281;SDS011;39167;52.794;6.892;2022-12-11T08:54:43;62.75;;;19.75;;
53281;SDS011;39167;52.794;6.892;2022-12-11T08:57:09;50.70;;;18.77;;
53281;SDS011;39167;52.794;6.892;2022-12-11T08:59:34;52.15;;;18.67;;
53281;SDS011;39167;52.794;6.892;2022-12-11T09:02:00;45.88;;;19.45;;
53281;SDS011;39167;52.794;6.892;2022-12-11T09:04:26;58.65;;;21.25;;
53281;SDS011;39167;52.794;6.892;2022-12-11T09:06:51;50.58;;;20.42;;
53281;SDS011;39167;52.794;6.892;2022-12-11T09:09:17;55.15;;;19.55;;
53281;SDS011;39167;52.794;6.892;2022-12-11T09:11:43;61.20;;;20.17;;
53281;SDS011;39167;52.794;6.892;2022-12-11T09:14:08;53.88;;;18.75;;
53281;SDS011;39167;52.794;6.892;2022-12-11T09:16:35;57.00;;;19.42;;
53281;SDS011;39167;52.794;6.892;2022-12-11T09:19:05;56.80;;;18.20;;
53281;SDS011;39167;52.794;6.892;2022-12-11T09:21:31;54.20;;;17.95;;
53281;SDS011;39167;52.794;6.892;2022-12-11T09:23:58;51.92;;;18.52;;
53281;SDS011;39167;52.794;6.892;2022-12-11T09:26:25;54.00;;;18.38;;
53281;SDS011;39167;52.794;6.892;2022-12-11T09:28:52;58.72;;;20.48;;
53281;SDS011;39167;52.794;6.892;2022-12-11T09:31:19;67.88;;;22.95;;
53281;SDS011;39167;52.794;6.892;2022-12-11T09:33:50;61.15;;;20.17;;
53281;SDS011;39167;52.794;6.892;2022-12-11T09:36:20;56.60;;;19.73;;
53281;SDS011;39167;52.794;6.892;2022-12-11T09:38:46;53.92;;;19.85;;
53281;SDS011;39167;52.794;6.892;2022-12-11T09:43:43;53.95;;;20.70;;
53281;SDS011;39167;52.794;6.892;2022-12-11T09:46:29;53.28;;;21.67;;
53281;SDS011;39167;52.794;6.892;2022-12-11T09:48:56;62.70;;;20.17;;
53281;SDS011;39167;52.794;6.892;2022-12-11T09:51:29;56.97;;;20.90;;
53281;SDS011;39167;52.794;6.892;2022-12-11T09:54:10;71.57;;;25.35;;
53281;SDS011;39167;52.794;6.892;2022-12-11T09:56:51;56.75;;;20.67;;
53281;SDS011;39167;52.794;6.892;2022-12-11T10:07:47;49.30;;;19.60;;
53281;SDS011;39167;52.794;6.892;2022-12-11T10:10:50;54.33;;;18.98;;
53281;SDS011;39167;52.794;6.892;2022-12-11T10:16:11;60.55;;;23.17;;
53281;SDS011;39167;52.794;6.892;2022-12-11T10:18:44;60.38;;;21.95;;
53281;SDS011;39167;52.794;6.892;2022-12-11T10:21:11;58.83;;;20.58;;
53281;SDS011;39167;52.794;6.892;2022-12-11T10:23:43;51.28;;;19.48;;
53281;SDS011;39167;52.794;6.892;2022-12-11T10:26:18;56.28;;;19.35;;
53281;SDS011;39167;52.794;6.892;2022-12-11T10:28:45;51.17;;;19.48;;
53281;SDS011;39167;52.794;6.892;2022-12-11T10:34:00;48.47;;;18.92;;
53281;SDS011;39167;52.794;6.892;2022-12-11T10:36:31;53.08;;;19.63;;
53281;SDS011;39167;52.794;6.892;2022-12-11T10:39:00;49.88;;;18.83;;
53281;SDS011;39167;52.794;6.892;2022-12-11T10:46:27;45.42;;;17.25;;
53281;SDS011;39167;52.794;6.892;2022-12-11T10:49:00;50.80;;;18.90;;
53281;SDS011;39167;52.794;6.892;2022-12-11T10:53:56;53.08;;;20.40;;
53281;SDS011;39167;52.794;6.892;2022-12-11T10:58:52;48.60;;;18.65;;
53281;SDS011;39167;52.794;6.892;2022-12-11T11:01:20;55.90;;;20.10;;
53281;SDS011;39167;52.794;6.892;2022-12-11T11:06:23;50.92;;;19.13;;
53281;SDS011;39167;52.794;6.892;2022-12-11T11:08:51;50.55;;;19.27;;
53281;SDS011;39167;52.794;6.892;2022-12-11T11:13:44;52.47;;;21.20;;
53281;SDS011;39167;52.794;6.892;2022-12-11T11:16:13;54.72;;;21.13;;
53281;SDS011;39167;52.794;6.892;2022-12-11T11:18:41;46.42;;;18.20;;
53281;SDS011;39167;52.794;6.892;2022-12-11T11:21:18;48.58;;;18.77;;
53281;SDS011;39167;52.794;6.892;2022-12-11T11:23:47;52.72;;;20.08;;
53281;SDS011;39167;52.794;6.892;2022-12-11T11:26:12;50.13;;;20.15;;
53281;SDS011;39167;52.794;6.892;2022-12-11T11:28:46;46.92;;;19.73;;
53281;SDS011;39167;52.794;6.892;2022-12-11T11:31:14;50.45;;;20.40;;
53281;SDS011;39167;52.794;6.892;2022-12-11T11:33:53;54.47;;;20.10;;
53281;SDS011;39167;52.794;6.892;2022-12-11T11:36:26;50.45;;;18.80;;
53281;SDS011;39167;52.794;6.892;2022-12-11T11:41:54;53.95;;;19.67;;
53281;SDS011;39167;52.794;6.892;2022-12-11T11:45:18;45.47;;;17.60;;
53281;SDS011;39167;52.794;6.892;2022-12-11T11:47:35;48.65;;;20.23;;
53281;SDS011;39167;52.794;6.892;2022-12-11T11:50:18;48.47;;;19.38;;
53281;SDS011;39167;52.794;6.892;2022-12-11T11:58:47;49.70;;;18.25;;
53281;SDS011;39167;52.794;6.892;2022-12-11T12:01:23;50.45;;;18.02;;
53281;SDS011;39167;52.794;6.892;2022-12-11T12:03:50;50.80;;;18.27;;
53281;SDS011;39167;52.794;6.892;2022-12-11T12:17:14;46.85;;;18.25;;
53281;SDS011;39167;52.794;6.892;2022-12-11T12:26:08;50.58;;;19.75;;
53281;SDS011;39167;52.794;6.892;2022-12-11T12:34:17;51.53;;;19.23;;
53281;SDS011;39167;52.794;6.892;2022-12-11T12:46:59;48.42;;;18.65;;
53281;SDS011;39167;52.794;6.892;2022-12-11T12:49:48;56.67;;;19.25;;
53281;SDS011;39167;52.794;6.892;2022-12-11T12:52:21;48.28;;;19.75;;
53281;SDS011;39167;52.794;6.892;2022-12-11T12:54:55;56.33;;;20.23;;
53281;SDS011;39167;52.794;6.892;2022-12-11T12:57:54;58.60;;;19.17;;
53281;SDS011;39167;52.794;6.892;2022-12-11T13:00:35;49.47;;;19.13;;
53281;SDS011;39167;52.794;6.892;2022-12-11T13:03:17;52.80;;;19.65;;
53281;SDS011;39167;52.794;6.892;2022-12-11T13:05:54;52.00;;;20.05;;
53281;SDS011;39167;52.794;6.892;2022-12-11T13:08:40;50.33;;;19.73;;
53281;SDS011;39167;52.794;6.892;2022-12-11T13:11:10;51.85;;;19.88;;
53281;SDS011;39167;52.794;6.892;2022-12-11T13:13:39;59.55;;;21.13;;
53281;SDS011;39167;52.794;6.892;2022-12-11T13:18:37;50.33;;;19.20;;
53281;SDS011;39167;52.794;6.892;2022-12-11T13:21:23;59.90;;;20.63;;
53281;SDS011;39167;52.794;6.892;2022-12-11T13:26:45;82.13;;;35.40;;
53281;SDS011;39167;52.794;6.892;2022-12-11T13:34:39;59.15;;;26.35;;
53281;SDS011;39167;52.794;6.892;2022-12-11T13:37:20;56.70;;;24.65;;
53281;SDS011;39167;52.794;6.892;2022-12-11T13:39:57;56.60;;;21.77;;
53281;SDS011;39167;52.794;6.892;2022-12-11T13:42:28;52.53;;;20.95;;
53281;SDS011;39167;52.794;6.892;2022-12-11T13:44:58;59.72;;;23.45;;
53281;SDS011;39167;52.794;6.892;2022-12-11T13:47:24;62.22;;;22.75;;
53281;SDS011;39167;52.794;6.892;2022-12-11T13:49:54;54.10;;;20.83;;
53281;SDS011;39167;52.794;6.892;2022-12-11T13:52:28;57.22;;;23.40;;
53281;SDS011;39167;52.794;6.892;2022-12-11T13:54:55;62.30;;;24.55;;
53281;SDS011;39167;52.794;6.892;2022-12-11T13:57:26;64.57;;;22.55;;
53281;SDS011;39167;52.794;6.892;2022-12-11T14:02:25;54.85;;;21.85;;
53281;SDS011;39167;52.794;6.892;2022-12-11T14:04:59;51.42;;;19.92;;
53281;SDS011;39167;52.794;6.892;2022-12-11T14:07:34;53.00;;;19.88;;
53281;SDS011;39167;52.794;6.892;2022-12-11T14:10:07;50.80;;;19.42;;
53281;SDS011;39167;52.794;6.892;2022-12-11T14:12:44;51.85;;;20.38;;
53281;SDS011;39167;52.794;6.892;2022-12-11T14:15:32;50.03;;;18.85;;
53281;SDS011;39167;52.794;6.892;2022-12-11T14:18:00;48.63;;;18.73;;
53281;SDS011;39167;52.794;6.892;2022-12-11T14:20:31;56.58;;;19.45;;
53281;SDS011;39167;52.794;6.892;2022-12-11T14:25:58;43.40;;;17.02;;
53281;SDS011;39167;52.794;6.892;2022-12-11T14:28:26;48.08;;;18.15;;
53281;SDS011;39167;52.794;6.892;2022-12-11T14:30:54;49.63;;;17.67;;
53281;SDS011;39167;52.794;6.892;2022-12-11T14:33:28;42.28;;;17.17;;
53281;SDS011;39167;52.794;6.892;2022-12-11T14:36:00;44.65;;;17.70;;
53281;SDS011;39167;52.794;6.892;2022-12-11T14:38:37;41.03;;;16.95;;
53281;SDS011;39167;52.794;6.892;2022-12-11T14:41:15;44.70;;;18.08;;
53281;SDS011;39167;52.794;6.892;2022-12-11T14:43:56;46.60;;;18.40;;
53281;SDS011;39167;52.794;6.892;2022-12-11T14:49:22;48.03;;;18.98;;
53281;SDS011;39167;52.794;6.892;2022-12-11T14:52:04;47.13;;;18.88;;
53281;SDS011;39167;52.794;6.892;2022-12-11T14:54:41;53.55;;;20.48;;
53281;SDS011;39167;52.794;6.892;2022-12-11T14:57:20;51.22;;;19.30;;
53281;SDS011;39167;52.794;6.892;2022-12-11T14:59:50;55.53;;;20.92;;
53281;SDS011;39167;52.794;6.892;2022-12-11T15:07:57;44.35;;;19.65;;
53281;SDS011;39167;52.794;6.892;2022-12-11T15:10:34;46.60;;;18.77;;
53281;SDS011;39167;52.794;6.892;2022-12-11T15:13:05;51.75;;;19.05;;
53281;SDS011;39167;52.794;6.892;2022-12-11T15:15:32;41.70;;;17.05;;
53281;SDS011;39167;52.794;6.892;2022-12-11T15:18:12;47.42;;;18.17;;
53281;SDS011;39167;52.794;6.892;2022-12-11T15:20:50;43.37;;;16.07;;
53281;SDS011;39167;52.794;6.892;2022-12-11T15:23:18;43.55;;;18.50;;
53281;SDS011;39167;52.794;6.892;2022-12-11T15:25:51;46.47;;;17.02;;
53281;SDS011;39167;52.794;6.892;2022-12-11T15:28:26;38.35;;;16.30;;
53281;SDS011;39167;52.794;6.892;2022-12-11T15:31:01;39.70;;;15.93;;
53281;SDS011;39167;52.794;6.892;2022-12-11T15:33:29;38.50;;;15.73;;
53281;SDS011;39167;52.794;6.892;2022-12-11T15:35:56;38.95;;;14.90;;
53281;SDS011;39167;52.794;6.892;2022-12-11T15:38:28;43.92;;;16.70;;
53281;SDS011;39167;52.794;6.892;2022-12-11T15:43:22;36.75;;;16.00;;
53281;SDS011;39167;52.794;6.892;2022-12-11T15:45:48;43.83;;;18.25;;
53281;SDS011;39167;52.794;6.892;2022-12-11T15:48:14;42.80;;;18.20;;
53281;SDS011;39167;52.794;6.892;2022-12-11T15:50:39;48.40;;;17.83;;
53281;SDS011;39167;52.794;6.892;2022-12-11T15:53:05;37.83;;;17.27;;
53281;SDS011;39167;52.794;6.892;2022-12-11T15:55:31;46.70;;;20.88;;
53281;SDS011;39167;52.794;6.892;2022-12-11T15:58:00;40.33;;;18.95;;
53281;SDS011;39167;52.794;6.892;2022-12-11T16:00:28;51.60;;;22.33;;
53281;SDS011;39167;52.794;6.892;2022-12-11T16:02:55;45.90;;;18.77;;
53281;SDS011;39167;52.794;6.892;2022-12-11T16:05:21;42.38;;;17.35;;
53281;SDS011;39167;52.794;6.892;2022-12-11T16:07:47;41.15;;;17.85;;
53281;SDS011;39167;52.794;6.892;2022-12-11T16:10:16;35.55;;;17.25;;
53281;SDS011;39167;52.794;6.892;2022-12-11T16:12:43;40.95;;;20.08;;
53281;SDS011;39167;52.794;6.892;2022-12-11T16:15:09;44.53;;;19.85;;
53281;SDS011;39167;52.794;6.892;2022-12-11T16:17:36;38.45;;;17.95;;
53281;SDS011;39167;52.794;6.892;2022-12-11T16:20:03;41.95;;;17.00;;
53281;SDS011;39167;52.794;6.892;2022-12-11T16:22:30;35.75;;;16.65;;
53281;SDS011;39167;52.794;6.892;2022-12-11T16:24:55;32.63;;;15.85;;